sensor_id;sensor_type;location;lat;lon;timestamp;temperature;humidity
10581;DHT22;5338;51.500;6.802;2022-10-30T00:05:47;18.50;99.90
10581;DHT22;5338;51.500;6.802;2022-10-30T00:08:16;18.60;99.90
10581;DHT22;5338;51.500;6.802;2022-10-30T00:10:45;18.50;99.90
10581;DHT22;5338;51.500;6.802;2022-10-30T00:15:46;18.50;99.90
10581;DHT22;5338;51.500;6.802;2022-10-30T00:25:34;18.20;99.90
10581;DHT22;5338;51.500;6.802;2022-10-30T00:28:03;18.30;99.90
10581;DHT22;5338;51.500;6.802;2022-10-30T00:30:30;18.70;99.90
10581;DHT22;5338;51.500;6.802;2022-10-30T00:42:46;18.20;99.90
10581;DHT22;5338;51.500;6.802;2022-10-30T00:45:16;18.20;99.90
10581;DHT22;5338;51.500;6.802;2022-10-30T00:47:44;18.30;99.90
10581;DHT22;5338;51.500;6.802;2022-10-30T00:50:14;18.10;99.90
10581;DHT22;5338;51.500;6.802;2022-10-30T00:52:46;17.90;99.90
10581;DHT22;5338;51.500;6.802;2022-10-30T00:55:23;18.10;99.90
10581;DHT22;5338;51.500;6.802;2022-10-30T00:57:52;18.00;99.90
10581;DHT22;5338;51.500;6.802;2022-10-30T01:00:21;18.00;99.90
10581;DHT22;5338;51.500;6.802;2022-10-30T01:05:19;18.00;99.90
10581;DHT22;5338;51.500;6.802;2022-10-30T01:10:14;18.00;99.90
10581;DHT22;5338;51.500;6.802;2022-10-30T01:12:41;18.20;99.90
10581;DHT22;5338;51.500;6.802;2022-10-30T01:15:10;17.90;99.90
10581;DHT22;5338;51.500;6.802;2022-10-30T01:18:19;18.60;99.90
10581;DHT22;5338;51.500;6.802;2022-10-30T01:21:10;18.00;99.90
10581;DHT22;5338;51.500;6.802;2022-10-30T01:23:47;17.90;99.90
10581;DHT22;5338;51.500;6.802;2022-10-30T01:26:24;17.90;99.90
10581;DHT22;5338;51.500;6.802;2022-10-30T01:29:05;17.80;99.90
10581;DHT22;5338;51.500;6.802;2022-10-30T01:31:41;17.80;99.90
10581;DHT22;5338;51.500;6.802;2022-10-30T01:34:17;17.90;99.90
10581;DHT22;5338;51.500;6.802;2022-10-30T01:36:48;18.20;99.90
10581;DHT22;5338;51.500;6.802;2022-10-30T01:39:19;17.80;99.90
10581;DHT22;5338;51.500;6.802;2022-10-30T01:44:17;17.70;99.90
10581;DHT22;5338;51.500;6.802;2022-10-30T01:46:55;17.60;99.90
10581;DHT22;5338;51.500;6.802;2022-10-30T01:49:40;17.60;99.90
10581;DHT22;5338;51.500;6.802;2022-10-30T01:52:16;17.80;99.90
10581;DHT22;5338;51.500;6.802;2022-10-30T01:54:48;17.60;99.90
10581;DHT22;5338;51.500;6.802;2022-10-30T01:57:25;17.60;99.90
10581;DHT22;5338;51.500;6.802;2022-10-30T02:00:00;17.50;99.90
10581;DHT22;5338;51.500;6.802;2022-10-30T02:02:27;17.30;99.90
10581;DHT22;5338;51.500;6.802;2022-10-30T02:04:56;17.50;99.90
10581;DHT22;5338;51.500;6.802;2022-10-30T02:07:23;17.50;99.90
10581;DHT22;5338;51.500;6.802;2022-10-30T02:09:50;17.70;99.90
10581;DHT22;5338;51.500;6.802;2022-10-30T02:14:47;17.40;99.90
10581;DHT22;5338;51.500;6.802;2022-10-30T02:22:11;17.30;99.90
10581;DHT22;5338;51.500;6.802;2022-10-30T02:24:38;17.30;99.90
10581;DHT22;5338;51.500;6.802;2022-10-30T02:27:05;17.30;99.90
10581;DHT22;5338;51.500;6.802;2022-10-30T02:39:21;17.50;99.90
10581;DHT22;5338;51.500;6.802;2022-10-30T02:41:48;17.40;99.90
10581;DHT22;5338;51.500;6.802;2022-10-30T02:46:42;17.30;99.90
10581;DHT22;5338;51.500;6.802;2022-10-30T02:49:09;17.00;99.90
10581;DHT22;5338;51.500;6.802;2022-10-30T02:54:03;17.00;99.90
10581;DHT22;5338;51.500;6.802;2022-10-30T02:56:31;17.20;99.90
10581;DHT22;5338;51.500;6.802;2022-10-30T02:58:57;17.00;99.90
10581;DHT22;5338;51.500;6.802;2022-10-30T03:08:46;17.00;99.90
10581;DHT22;5338;51.500;6.802;2022-10-30T03:11:14;17.00;99.90
10581;DHT22;5338;51.500;6.802;2022-10-30T03:13:43;16.80;99.90
10581;DHT22;5338;51.500;6.802;2022-10-30T03:16:12;17.00;99.90
10581;DHT22;5338;51.500;6.802;2022-10-30T03:18:39;16.90;99.90
10581;DHT22;5338;51.500;6.802;2022-10-30T03:21:08;16.90;99.90
10581;DHT22;5338;51.500;6.802;2022-10-30T03:26:03;16.90;99.90
10581;DHT22;5338;51.500;6.802;2022-10-30T03:28:30;16.70;99.90
10581;DHT22;5338;51.500;6.802;2022-10-30T03:31:00;16.80;99.90
10581;DHT22;5338;51.500;6.802;2022-10-30T03:43:16;16.50;99.90
10581;DHT22;5338;51.500;6.802;2022-10-30T03:45:46;16.80;99.90
10581;DHT22;5338;51.500;6.802;2022-10-30T03:48:15;17.60;99.90
10581;DHT22;5338;51.500;6.802;2022-10-30T03:50:43;16.70;99.90
10581;DHT22;5338;51.500;6.802;2022-10-30T03:53:10;16.70;99.90
10581;DHT22;5338;51.500;6.802;2022-10-30T03:58:05;16.40;99.90
10581;DHT22;5338;51.500;6.802;2022-10-30T04:00:33;16.60;99.90
10581;DHT22;5338;51.500;6.802;2022-10-30T04:03:00;16.60;99.90
10581;DHT22;5338;51.500;6.802;2022-10-30T04:05:29;16.50;99.90
10581;DHT22;5338;51.500;6.802;2022-10-30T04:07:57;16.50;99.90
10581;DHT22;5338;51.500;6.802;2022-10-30T04:10:25;15.80;99.90
10581;DHT22;5338;51.500;6.802;2022-10-30T04:12:54;16.30;99.90
10581;DHT22;5338;51.500;6.802;2022-10-30T04:20:19;16.20;99.90
10581;DHT22;5338;51.500;6.802;2022-10-30T04:22:48;16.20;99.90
10581;DHT22;5338;51.500;6.802;2022-10-30T04:27:42;16.20;99.90
10581;DHT22;5338;51.500;6.802;2022-10-30T04:30:11;16.00;99.90
10581;DHT22;5338;51.500;6.802;2022-10-30T04:32:45;16.30;99.90
10581;DHT22;5338;51.500;6.802;2022-10-30T04:35:12;15.40;99.90
10581;DHT22;5338;51.500;6.802;2022-10-30T04:40:09;15.90;99.90
10581;DHT22;5338;51.500;6.802;2022-10-30T04:42:35;15.70;99.90
10581;DHT22;5338;51.500;6.802;2022-10-30T04:47:29;15.70;99.90
10581;DHT22;5338;51.500;6.802;2022-10-30T04:54:50;15.80;99.90
10581;DHT22;5338;51.500;6.802;2022-10-30T04:57:18;15.80;99.90
10581;DHT22;5338;51.500;6.802;2022-10-30T04:59:45;16.00;99.90
10581;DHT22;5338;51.500;6.802;2022-10-30T05:07:06;15.60;99.90
10581;DHT22;5338;51.500;6.802;2022-10-30T05:09:33;15.40;99.90
10581;DHT22;5338;51.500;6.802;2022-10-30T05:14:29;15.70;99.90
10581;DHT22;5338;51.500;6.802;2022-10-30T05:16:56;15.90;99.90
10581;DHT22;5338;51.500;6.802;2022-10-30T05:19:23;15.80;99.90
10581;DHT22;5338;51.500;6.802;2022-10-30T05:21:50;15.50;99.90
10581;DHT22;5338;51.500;6.802;2022-10-30T05:29:11;15.40;99.90
10581;DHT22;5338;51.500;6.802;2022-10-30T05:31:39;15.40;99.90
10581;DHT22;5338;51.500;6.802;2022-10-30T05:48:50;15.10;99.90
10581;DHT22;5338;51.500;6.802;2022-10-30T05:56:11;15.00;99.90
10581;DHT22;5338;51.500;6.802;2022-10-30T06:01:05;15.10;99.90
10581;DHT22;5338;51.500;6.802;2022-10-30T06:06:01;15.20;99.90
10581;DHT22;5338;51.500;6.802;2022-10-30T06:23:12;15.10;99.90
10581;DHT22;5338;51.500;6.802;2022-10-30T06:25:38;14.40;99.90
10581;DHT22;5338;51.500;6.802;2022-10-30T06:33:01;15.00;99.90
10581;DHT22;5338;51.500;6.802;2022-10-30T06:35:28;14.80;99.90
10581;DHT22;5338;51.500;6.802;2022-10-30T06:37:56;14.90;99.90
10581;DHT22;5338;51.500;6.802;2022-10-30T06:40:26;14.80;99.90
10581;DHT22;5338;51.500;6.802;2022-10-30T06:45:22;14.90;99.90
10581;DHT22;5338;51.500;6.802;2022-10-30T06:47:49;15.00;99.90
10581;DHT22;5338;51.500;6.802;2022-10-30T06:50:17;14.90;99.90
10581;DHT22;5338;51.500;6.802;2022-10-30T06:55:12;15.00;99.90
10581;DHT22;5338;51.500;6.802;2022-10-30T06:57:41;15.00;99.90
10581;DHT22;5338;51.500;6.802;2022-10-30T07:00:08;15.20;99.90
10581;DHT22;5338;51.500;6.802;2022-10-30T07:05:03;15.10;99.90
10581;DHT22;5338;51.500;6.802;2022-10-30T07:09:57;15.80;99.90
10581;DHT22;5338;51.500;6.802;2022-10-30T07:14:52;16.10;99.90
10581;DHT22;5338;51.500;6.802;2022-10-30T07:17:19;16.80;99.90
10581;DHT22;5338;51.500;6.802;2022-10-30T07:19:46;16.20;99.90
10581;DHT22;5338;51.500;6.802;2022-10-30T07:29:34;17.60;99.90
10581;DHT22;5338;51.500;6.802;2022-10-30T07:32:03;17.40;99.90
10581;DHT22;5338;51.500;6.802;2022-10-30T07:36:57;17.60;99.90
10581;DHT22;5338;51.500;6.802;2022-10-30T07:41:52;17.60;99.90
10581;DHT22;5338;51.500;6.802;2022-10-30T07:46:46;17.20;99.90
10581;DHT22;5338;51.500;6.802;2022-10-30T07:49:14;17.20;99.90
10581;DHT22;5338;51.500;6.802;2022-10-30T08:03:57;17.50;99.90
10581;DHT22;5338;51.500;6.802;2022-10-30T08:06:25;17.70;99.90
10581;DHT22;5338;51.500;6.802;2022-10-30T08:23:37;18.50;99.90
10581;DHT22;5338;51.500;6.802;2022-10-30T08:26:04;18.90;99.90
10581;DHT22;5338;51.500;6.802;2022-10-30T08:28:31;18.70;99.90
10581;DHT22;5338;51.500;6.802;2022-10-30T08:30:59;18.90;99.90
10581;DHT22;5338;51.500;6.802;2022-10-30T08:35:54;18.90;99.90
10581;DHT22;5338;51.500;6.802;2022-10-30T08:40:50;18.80;99.90
10581;DHT22;5338;51.500;6.802;2022-10-30T08:43:17;18.00;99.90
10581;DHT22;5338;51.500;6.802;2022-10-30T08:48:14;18.80;99.90
10581;DHT22;5338;51.500;6.802;2022-10-30T08:50:41;18.90;99.90
10581;DHT22;5338;51.500;6.802;2022-10-30T08:53:11;18.90;99.90
10581;DHT22;5338;51.500;6.802;2022-10-30T08:58:06;19.00;99.90
10581;DHT22;5338;51.500;6.802;2022-10-30T09:03:00;19.20;99.90
10581;DHT22;5338;51.500;6.802;2022-10-30T09:07:55;19.80;99.90
10581;DHT22;5338;51.500;6.802;2022-10-30T09:12:55;19.80;99.90
10581;DHT22;5338;51.500;6.802;2022-10-30T09:15:24;19.60;99.90
10581;DHT22;5338;51.500;6.802;2022-10-30T09:17:55;19.60;99.90
10581;DHT22;5338;51.500;6.802;2022-10-30T09:25:22;19.60;99.90
10581;DHT22;5338;51.500;6.802;2022-10-30T09:32:44;19.80;99.90
10581;DHT22;5338;51.500;6.802;2022-10-30T09:40:07;19.90;99.90
10581;DHT22;5338;51.500;6.802;2022-10-30T09:42:40;19.80;99.90
10581;DHT22;5338;51.500;6.802;2022-10-30T09:48:14;20.00;99.90
10581;DHT22;5338;51.500;6.802;2022-10-30T09:50:49;20.40;99.90
10581;DHT22;5338;51.500;6.802;2022-10-30T09:53:24;19.90;99.90
10581;DHT22;5338;51.500;6.802;2022-10-30T09:56:02;20.50;99.90
10581;DHT22;5338;51.500;6.802;2022-10-30T09:58:34;20.70;99.90
10581;DHT22;5338;51.500;6.802;2022-10-30T10:01:11;20.40;99.90
10581;DHT22;5338;51.500;6.802;2022-10-30T10:03:54;20.60;99.90
10581;DHT22;5338;51.500;6.802;2022-10-30T10:06:24;20.80;99.90
10581;DHT22;5338;51.500;6.802;2022-10-30T10:08:55;20.40;99.90
10581;DHT22;5338;51.500;6.802;2022-10-30T10:11:28;20.50;99.90
10581;DHT22;5338;51.500;6.802;2022-10-30T10:13:58;20.40;99.90
10581;DHT22;5338;51.500;6.802;2022-10-30T10:16:29;20.50;99.90
10581;DHT22;5338;51.500;6.802;2022-10-30T10:19:03;20.60;99.90
10581;DHT22;5338;51.500;6.802;2022-10-30T10:21:42;20.70;99.90
10581;DHT22;5338;51.500;6.802;2022-10-30T10:24:14;21.30;99.90
10581;DHT22;5338;51.500;6.802;2022-10-30T10:26:46;21.20;99.90
10581;DHT22;5338;51.500;6.802;2022-10-30T10:29:36;21.40;99.90
10581;DHT22;5338;51.500;6.802;2022-10-30T10:32:24;21.70;99.90
10581;DHT22;5338;51.500;6.802;2022-10-30T10:35:17;22.00;99.90
10581;DHT22;5338;51.500;6.802;2022-10-30T10:37:50;22.20;99.90
10581;DHT22;5338;51.500;6.802;2022-10-30T10:40:24;22.30;98.10
10581;DHT22;5338;51.500;6.802;2022-10-30T10:43:03;22.50;97.90
10581;DHT22;5338;51.500;6.802;2022-10-30T10:45:42;22.70;95.60
10581;DHT22;5338;51.500;6.802;2022-10-30T10:48:34;22.80;92.50
10581;DHT22;5338;51.500;6.802;2022-10-30T10:51:07;22.90;93.30
10581;DHT22;5338;51.500;6.802;2022-10-30T10:53:41;23.00;90.90
10581;DHT22;5338;51.500;6.802;2022-10-30T10:56:09;23.20;90.00
10581;DHT22;5338;51.500;6.802;2022-10-30T10:58:42;23.00;86.20
10581;DHT22;5338;51.500;6.802;2022-10-30T11:01:13;23.00;87.70
10581;DHT22;5338;51.500;6.802;2022-10-30T11:03:48;23.30;87.00
10581;DHT22;5338;51.500;6.802;2022-10-30T11:06:21;23.40;94.80
10581;DHT22;5338;51.500;6.802;2022-10-30T11:08:51;23.30;82.80
10581;DHT22;5338;51.500;6.802;2022-10-30T11:13:47;23.80;88.40
10581;DHT22;5338;51.500;6.802;2022-10-30T11:16:20;23.50;84.20
10581;DHT22;5338;51.500;6.802;2022-10-30T11:18:55;23.60;83.00
10581;DHT22;5338;51.500;6.802;2022-10-30T11:21:26;23.70;81.90
10581;DHT22;5338;51.500;6.802;2022-10-30T11:23:53;24.00;93.30
10581;DHT22;5338;51.500;6.802;2022-10-30T11:26:26;23.60;81.20
10581;DHT22;5338;51.500;6.802;2022-10-30T11:28:56;24.10;80.30
10581;DHT22;5338;51.500;6.802;2022-10-30T11:31:25;24.20;85.70
10581;DHT22;5338;51.500;6.802;2022-10-30T11:36:27;24.20;77.60
10581;DHT22;5338;51.500;6.802;2022-10-30T11:38:56;24.10;76.70
10581;DHT22;5338;51.500;6.802;2022-10-30T11:44:01;24.10;91.20
10581;DHT22;5338;51.500;6.802;2022-10-30T11:51:31;24.70;86.00
10581;DHT22;5338;51.500;6.802;2022-10-30T11:53:59;24.70;72.00
10581;DHT22;5338;51.500;6.802;2022-10-30T11:56:27;24.80;70.20
10581;DHT22;5338;51.500;6.802;2022-10-30T11:58:55;24.70;70.50
10581;DHT22;5338;51.500;6.802;2022-10-30T12:01:24;24.60;70.30
10581;DHT22;5338;51.500;6.802;2022-10-30T12:03:53;24.50;77.30
10581;DHT22;5338;51.500;6.802;2022-10-30T12:06:26;24.40;74.10
10581;DHT22;5338;51.500;6.802;2022-10-30T12:09:03;23.90;72.10
10581;DHT22;5338;51.500;6.802;2022-10-30T12:11:32;23.80;73.20
10581;DHT22;5338;51.500;6.802;2022-10-30T12:13:59;23.80;72.30
10581;DHT22;5338;51.500;6.802;2022-10-30T12:16:27;23.80;88.40
10581;DHT22;5338;51.500;6.802;2022-10-30T12:19:03;23.50;89.20
10581;DHT22;5338;51.500;6.802;2022-10-30T12:21:38;23.10;75.30
10581;DHT22;5338;51.500;6.802;2022-10-30T12:24:14;23.00;90.80
10581;DHT22;5338;51.500;6.802;2022-10-30T12:26:46;22.80;77.00
10581;DHT22;5338;51.500;6.802;2022-10-30T12:29:15;21.60;91.50
10581;DHT22;5338;51.500;6.802;2022-10-30T12:31:47;22.50;79.30
10581;DHT22;5338;51.500;6.802;2022-10-30T12:34:26;22.40;80.40
10581;DHT22;5338;51.500;6.802;2022-10-30T12:36:59;22.40;82.50
10581;DHT22;5338;51.500;6.802;2022-10-30T12:39:42;22.30;82.70
10581;DHT22;5338;51.500;6.802;2022-10-30T12:42:12;22.30;83.50
10581;DHT22;5338;51.500;6.802;2022-10-30T12:44:43;22.20;83.60
10581;DHT22;5338;51.500;6.802;2022-10-30T12:47:16;22.10;83.10
10581;DHT22;5338;51.500;6.802;2022-10-30T12:49:49;22.10;84.90
10581;DHT22;5338;51.500;6.802;2022-10-30T12:52:20;21.90;83.40
10581;DHT22;5338;51.500;6.802;2022-10-30T12:54:51;21.90;84.80
10581;DHT22;5338;51.500;6.802;2022-10-30T12:57:22;21.90;83.70
10581;DHT22;5338;51.500;6.802;2022-10-30T12:59:58;22.20;94.70
10581;DHT22;5338;51.500;6.802;2022-10-30T13:02:35;22.10;89.80
10581;DHT22;5338;51.500;6.802;2022-10-30T13:05:12;21.80;85.70
10581;DHT22;5338;51.500;6.802;2022-10-30T13:07:46;22.90;88.10
10581;DHT22;5338;51.500;6.802;2022-10-30T13:10:22;21.10;86.50
10581;DHT22;5338;51.500;6.802;2022-10-30T13:12:56;21.70;86.10
10581;DHT22;5338;51.500;6.802;2022-10-30T13:15:28;21.70;87.00
10581;DHT22;5338;51.500;6.802;2022-10-30T13:17:57;21.50;93.40
10581;DHT22;5338;51.500;6.802;2022-10-30T13:20:26;21.60;87.80
10581;DHT22;5338;51.500;6.802;2022-10-30T13:22:58;21.60;89.10
10581;DHT22;5338;51.500;6.802;2022-10-30T13:25:32;21.50;88.90
10581;DHT22;5338;51.500;6.802;2022-10-30T13:28:04;21.10;90.30
10581;DHT22;5338;51.500;6.802;2022-10-30T13:30:36;21.40;89.60
10581;DHT22;5338;51.500;6.802;2022-10-30T13:33:09;21.40;90.90
10581;DHT22;5338;51.500;6.802;2022-10-30T13:35:42;21.30;91.50
10581;DHT22;5338;51.500;6.802;2022-10-30T13:38:24;21.30;91.70
10581;DHT22;5338;51.500;6.802;2022-10-30T13:40:59;21.30;91.80
10581;DHT22;5338;51.500;6.802;2022-10-30T13:43:34;21.40;95.70
10581;DHT22;5338;51.500;6.802;2022-10-30T13:46:15;21.30;92.60
10581;DHT22;5338;51.500;6.802;2022-10-30T13:48:59;21.00;94.60
10581;DHT22;5338;51.500;6.802;2022-10-30T13:51:36;21.20;93.30
10581;DHT22;5338;51.500;6.802;2022-10-30T13:54:14;21.30;93.40
10581;DHT22;5338;51.500;6.802;2022-10-30T13:56:46;21.40;99.90
10581;DHT22;5338;51.500;6.802;2022-10-30T13:59:25;21.30;92.60
10581;DHT22;5338;51.500;6.802;2022-10-30T14:01:57;21.20;92.60
10581;DHT22;5338;51.500;6.802;2022-10-30T14:04:31;21.30;93.60
10581;DHT22;5338;51.500;6.802;2022-10-30T14:07:13;21.20;93.90
10581;DHT22;5338;51.500;6.802;2022-10-30T14:09:50;21.20;94.00
10581;DHT22;5338;51.500;6.802;2022-10-30T14:12:44;21.20;98.80
10581;DHT22;5338;51.500;6.802;2022-10-30T14:15:23;21.20;94.70
10581;DHT22;5338;51.500;6.802;2022-10-30T14:20:51;20.50;96.20
10581;DHT22;5338;51.500;6.802;2022-10-30T14:23:20;21.10;96.10
10581;DHT22;5338;51.500;6.802;2022-10-30T14:26:13;21.10;96.70
10581;DHT22;5338;51.500;6.802;2022-10-30T14:28:42;21.10;97.90
10581;DHT22;5338;51.500;6.802;2022-10-30T14:31:11;21.30;99.90
10581;DHT22;5338;51.500;6.802;2022-10-30T14:33:43;21.10;99.10
10581;DHT22;5338;51.500;6.802;2022-10-30T14:36:19;21.20;99.90
10581;DHT22;5338;51.500;6.802;2022-10-30T14:38:59;20.70;99.90
10581;DHT22;5338;51.500;6.802;2022-10-30T14:41:32;21.00;99.90
10581;DHT22;5338;51.500;6.802;2022-10-30T14:47:11;20.90;99.90
10581;DHT22;5338;51.500;6.802;2022-10-30T14:49:48;20.90;99.90
10581;DHT22;5338;51.500;6.802;2022-10-30T14:52:21;20.90;99.90
10581;DHT22;5338;51.500;6.802;2022-10-30T14:54:56;20.80;99.90
10581;DHT22;5338;51.500;6.802;2022-10-30T14:57:42;20.80;99.90
10581;DHT22;5338;51.500;6.802;2022-10-30T15:00:40;20.40;99.90
10581;DHT22;5338;51.500;6.802;2022-10-30T15:03:24;20.70;99.90
10581;DHT22;5338;51.500;6.802;2022-10-30T15:05:56;20.40;99.90
10581;DHT22;5338;51.500;6.802;2022-10-30T15:08:45;20.70;99.90
10581;DHT22;5338;51.500;6.802;2022-10-30T15:11:30;20.40;99.90
10581;DHT22;5338;51.500;6.802;2022-10-30T15:14:04;20.60;99.90
10581;DHT22;5338;51.500;6.802;2022-10-30T15:16:37;20.80;99.90
10581;DHT22;5338;51.500;6.802;2022-10-30T15:19:06;20.10;99.90
10581;DHT22;5338;51.500;6.802;2022-10-30T15:21:41;21.80;99.90
10581;DHT22;5338;51.500;6.802;2022-10-30T15:24:12;20.40;99.90
10581;DHT22;5338;51.500;6.802;2022-10-30T15:26:43;20.40;99.90
10581;DHT22;5338;51.500;6.802;2022-10-30T15:29:16;20.20;99.90
10581;DHT22;5338;51.500;6.802;2022-10-30T15:31:57;20.50;99.90
10581;DHT22;5338;51.500;6.802;2022-10-30T15:34:26;20.00;99.90
10581;DHT22;5338;51.500;6.802;2022-10-30T15:36:53;20.20;99.90
10581;DHT22;5338;51.500;6.802;2022-10-30T15:41:52;20.10;99.90
10581;DHT22;5338;51.500;6.802;2022-10-30T15:44:30;20.00;99.90
10581;DHT22;5338;51.500;6.802;2022-10-30T15:47:00;20.00;99.90
10581;DHT22;5338;51.500;6.802;2022-10-30T15:49:29;19.90;99.90
10581;DHT22;5338;51.500;6.802;2022-10-30T15:52:01;19.90;99.90
10581;DHT22;5338;51.500;6.802;2022-10-30T15:54:31;19.80;99.90
10581;DHT22;5338;51.500;6.802;2022-10-30T15:59:28;19.70;99.90
10581;DHT22;5338;51.500;6.802;2022-10-30T16:01:57;19.70;99.90
10581;DHT22;5338;51.500;6.802;2022-10-30T16:04:26;19.60;99.90
10581;DHT22;5338;51.500;6.802;2022-10-30T16:06:58;19.50;99.90
10581;DHT22;5338;51.500;6.802;2022-10-30T16:09:26;19.20;99.90
10581;DHT22;5338;51.500;6.802;2022-10-30T16:11:56;19.40;99.90
10581;DHT22;5338;51.500;6.802;2022-10-30T16:14:25;19.40;99.90
10581;DHT22;5338;51.500;6.802;2022-10-30T16:19:25;19.30;99.90
10581;DHT22;5338;51.500;6.802;2022-10-30T16:21:53;19.20;99.90
10581;DHT22;5338;51.500;6.802;2022-10-30T16:24:22;19.20;99.90
10581;DHT22;5338;51.500;6.802;2022-10-30T16:27:01;19.10;99.90
10581;DHT22;5338;51.500;6.802;2022-10-30T16:34:26;18.80;99.90
10581;DHT22;5338;51.500;6.802;2022-10-30T16:36:57;18.60;99.90
10581;DHT22;5338;51.500;6.802;2022-10-30T16:39:24;18.80;99.90
10581;DHT22;5338;51.500;6.802;2022-10-30T16:41:55;18.80;99.90
10581;DHT22;5338;51.500;6.802;2022-10-30T16:44:26;18.70;99.90
10581;DHT22;5338;51.500;6.802;2022-10-30T16:46:54;18.70;99.90
10581;DHT22;5338;51.500;6.802;2022-10-30T16:49:23;18.70;99.90
10581;DHT22;5338;51.500;6.802;2022-10-30T16:51:56;18.60;99.90
10581;DHT22;5338;51.500;6.802;2022-10-30T16:54:26;18.60;99.90
10581;DHT22;5338;51.500;6.802;2022-10-30T16:56:55;18.60;99.90
10581;DHT22;5338;51.500;6.802;2022-10-30T16:59:33;18.60;99.90
10581;DHT22;5338;51.500;6.802;2022-10-30T17:02:03;18.60;99.90
10581;DHT22;5338;51.500;6.802;2022-10-30T17:04:33;18.60;99.90
10581;DHT22;5338;51.500;6.802;2022-10-30T17:07:13;18.50;99.90
10581;DHT22;5338;51.500;6.802;2022-10-30T17:09:41;18.40;99.90
10581;DHT22;5338;51.500;6.802;2022-10-30T17:12:19;18.60;99.90
10581;DHT22;5338;51.500;6.802;2022-10-30T17:14:49;18.40;99.90
10581;DHT22;5338;51.500;6.802;2022-10-30T17:17:28;18.20;99.90
10581;DHT22;5338;51.500;6.802;2022-10-30T17:19:57;18.30;99.90
10581;DHT22;5338;51.500;6.802;2022-10-30T17:22:26;18.30;99.90
10581;DHT22;5338;51.500;6.802;2022-10-30T17:24:57;18.00;99.90
10581;DHT22;5338;51.500;6.802;2022-10-30T17:27:35;18.30;99.90
10581;DHT22;5338;51.500;6.802;2022-10-30T17:30:05;18.20;99.90
10581;DHT22;5338;51.500;6.802;2022-10-30T17:32:52;18.20;99.90
10581;DHT22;5338;51.500;6.802;2022-10-30T17:35:19;17.90;99.90
10581;DHT22;5338;51.500;6.802;2022-10-30T17:37:48;18.40;99.90
10581;DHT22;5338;51.500;6.802;2022-10-30T17:40:16;18.20;99.90
10581;DHT22;5338;51.500;6.802;2022-10-30T17:42:44;17.90;99.90
10581;DHT22;5338;51.500;6.802;2022-10-30T17:45:13;18.40;99.90
10581;DHT22;5338;51.500;6.802;2022-10-30T17:47:40;18.20;99.90
10581;DHT22;5338;51.500;6.802;2022-10-30T17:50:08;18.00;99.90
10581;DHT22;5338;51.500;6.802;2022-10-30T17:55:16;18.00;99.90
10581;DHT22;5338;51.500;6.802;2022-10-30T18:00:13;18.20;99.90
10581;DHT22;5338;51.500;6.802;2022-10-30T18:05:13;18.10;99.90
10581;DHT22;5338;51.500;6.802;2022-10-30T18:10:09;18.20;99.90
10581;DHT22;5338;51.500;6.802;2022-10-30T18:15:17;17.70;99.90
10581;DHT22;5338;51.500;6.802;2022-10-30T18:22:42;17.40;99.90
10581;DHT22;5338;51.500;6.802;2022-10-30T18:25:15;17.80;99.90
10581;DHT22;5338;51.500;6.802;2022-10-30T18:27:43;17.50;99.90
10581;DHT22;5338;51.500;6.802;2022-10-30T18:30:11;17.50;99.90
10581;DHT22;5338;51.500;6.802;2022-10-30T18:32:38;17.50;99.90
10581;DHT22;5338;51.500;6.802;2022-10-30T18:35:12;17.60;99.90
10581;DHT22;5338;51.500;6.802;2022-10-30T18:37:39;17.80;99.90
10581;DHT22;5338;51.500;6.802;2022-10-30T18:40:07;17.50;99.90
10581;DHT22;5338;51.500;6.802;2022-10-30T18:42:36;17.50;99.90
10581;DHT22;5338;51.500;6.802;2022-10-30T18:45:15;17.50;99.90
10581;DHT22;5338;51.500;6.802;2022-10-30T18:55:18;17.70;99.90
10581;DHT22;5338;51.500;6.802;2022-10-30T18:57:47;17.50;99.90
10581;DHT22;5338;51.500;6.802;2022-10-30T19:00:17;17.50;99.90
10581;DHT22;5338;51.500;6.802;2022-10-30T19:05:18;17.50;99.90
10581;DHT22;5338;51.500;6.802;2022-10-30T19:10:13;17.50;99.90
10581;DHT22;5338;51.500;6.802;2022-10-30T19:15:14;17.50;99.90
10581;DHT22;5338;51.500;6.802;2022-10-30T19:22:39;17.40;99.90
10581;DHT22;5338;51.500;6.802;2022-10-30T19:25:25;17.50;99.90
10581;DHT22;5338;51.500;6.802;2022-10-30T19:30:22;17.50;99.90
10581;DHT22;5338;51.500;6.802;2022-10-30T19:32:50;17.60;99.90
10581;DHT22;5338;51.500;6.802;2022-10-30T19:35:18;17.60;99.90
10581;DHT22;5338;51.500;6.802;2022-10-30T19:37:46;17.60;99.90
10581;DHT22;5338;51.500;6.802;2022-10-30T19:40:18;17.60;99.90
10581;DHT22;5338;51.500;6.802;2022-10-30T19:45:13;17.60;99.90
10581;DHT22;5338;51.500;6.802;2022-10-30T19:47:42;17.60;99.90
10581;DHT22;5338;51.500;6.802;2022-10-30T19:50:21;17.70;99.90
10581;DHT22;5338;51.500;6.802;2022-10-30T19:52:49;17.70;99.90
10581;DHT22;5338;51.500;6.802;2022-10-30T19:55:19;18.90;99.90
10581;DHT22;5338;51.500;6.802;2022-10-30T19:57:47;17.60;99.90
10581;DHT22;5338;51.500;6.802;2022-10-30T20:00:16;17.40;99.90
10581;DHT22;5338;51.500;6.802;2022-10-30T20:02:45;17.50;99.90
10581;DHT22;5338;51.500;6.802;2022-10-30T20:05:13;17.50;99.90
10581;DHT22;5338;51.500;6.802;2022-10-30T20:07:40;17.90;99.90
10581;DHT22;5338;51.500;6.802;2022-10-30T20:10:16;17.50;99.90
10581;DHT22;5338;51.500;6.802;2022-10-30T20:15:15;17.20;99.90
10581;DHT22;5338;51.500;6.802;2022-10-30T20:17:43;17.30;99.90
10581;DHT22;5338;51.500;6.802;2022-10-30T20:20:19;17.20;99.90
10581;DHT22;5338;51.500;6.802;2022-10-30T20:25:14;17.00;99.90
10581;DHT22;5338;51.500;6.802;2022-10-30T20:27:41;17.10;99.90
10581;DHT22;5338;51.500;6.802;2022-10-30T20:30:20;17.00;99.90
10581;DHT22;5338;51.500;6.802;2022-10-30T20:32:49;16.90;99.90
10581;DHT22;5338;51.500;6.802;2022-10-30T20:35:17;16.90;99.90
10581;DHT22;5338;51.500;6.802;2022-10-30T20:37:55;16.80;99.90
10581;DHT22;5338;51.500;6.802;2022-10-30T20:40:22;17.00;99.90
10581;DHT22;5338;51.500;6.802;2022-10-30T20:42:49;16.80;99.90
10581;DHT22;5338;51.500;6.802;2022-10-30T20:45:18;16.80;99.90
10581;DHT22;5338;51.500;6.802;2022-10-30T20:50:16;16.60;99.90
10581;DHT22;5338;51.500;6.802;2022-10-30T20:52:44;16.70;99.90
10581;DHT22;5338;51.500;6.802;2022-10-30T20:55:11;16.80;99.90
10581;DHT22;5338;51.500;6.802;2022-10-30T20:57:39;16.80;99.90
10581;DHT22;5338;51.500;6.802;2022-10-30T21:00:07;16.60;99.90
10581;DHT22;5338;51.500;6.802;2022-10-30T21:02:34;16.70;99.90
10581;DHT22;5338;51.500;6.802;2022-10-30T21:07:30;16.80;99.90
10581;DHT22;5338;51.500;6.802;2022-10-30T21:14:51;16.60;99.90
10581;DHT22;5338;51.500;6.802;2022-10-30T21:19:45;16.60;99.90
10581;DHT22;5338;51.500;6.802;2022-10-30T21:24:40;16.70;99.90
10581;DHT22;5338;51.500;6.802;2022-10-30T21:27:08;16.70;99.90
10581;DHT22;5338;51.500;6.802;2022-10-30T21:29:35;16.60;99.90
10581;DHT22;5338;51.500;6.802;2022-10-30T21:36:56;16.50;99.90
10581;DHT22;5338;51.500;6.802;2022-10-30T21:41:52;16.70;99.90
10581;DHT22;5338;51.500;6.802;2022-10-30T21:44:19;16.70;99.90
10581;DHT22;5338;51.500;6.802;2022-10-30T21:46:48;16.60;99.90
10581;DHT22;5338;51.500;6.802;2022-10-30T21:49:15;16.80;99.90